Accueil
METAR-TAF:

METAR-TAF

Aéroports :

Orange_County_Airport

Orange, Texas, États-Unis

latitude: 30-04-09N, longitude: 093-48-13W, altitude: 4 m

Observation

Le bulletin a été fait il y a 25 minutes, à 01:55 UTC
Vent 11 kt de est avec des rafales jusqu'à 22 kt
Température 23°C
Humidité 89%
Pression 1016 hPa
Visibilité: 4.0 km
Nuages épars à une hauteur de 1200 ft
Nuages fragmentés à une hauteur de 2100 ft
Ciel couvert à une hauteur de 3100 ft
orage, forte pluie

METAR: KORG 300155Z AUTO 09011G22KT 2 1/2SM +TSRA SCT012 BKN021 OVC031 23/21 A3001 RMK AO2 LTG DSNT ALQS P0052 T02300211

Heure: 21:20 (02:20 UTC)


TAF: absent

Observations et prévisions météorologiques de plus de 4000 aéroports (messages METAR et TAF).

Les stations disponibles sont représentées par des disques jaunes et rouges sur la carte.

Passer la souris dessus pour voir le nom de la station.

Cliquer dessus pour voir les observations et prévisions météorologiques.

Pour changer de carte: cliquez sur les boutons verts avec une croix noire pour zoomer, sur le bouton vert avec un tiret pour effectuer un zoom arrière, ou sur les flèches vertes pour les cartes adjacentes.


METAR-TAF: